Time;durP1;ratioP1;P1;durP2;ratioP2;P2;SDS_P1;SDS_P2;PMS_P1;PMS_P2;Temp;Humidity;BMP_temperature;BMP_pressure;BME280_temperature;BME280_humidity;BME280_pressure;Samples;Min_cycle;Max_cycle;Signal;HPM_P1;HPM_P2
2023/03/11 00:01:18;;;;;;;2.27;1.70;;;;;;;0.61;80.51;94424.03;4982702;28;20247;-86
2023/03/11 00:03:43;;;;;;;2.43;1.53;;;;;;;0.63;80.57;94440.09;4969545;28;20261;-85
2023/03/11 00:06:09;;;;;;;4.27;1.80;;;;;;;0.57;80.79;94450.75;4991750;28;20303;-86
2023/03/11 00:08:34;;;;;;;2.30;2.00;;;;;;;0.55;80.89;94444.94;4985728;28;20183;-86
2023/03/11 00:11:00;;;;;;;2.60;1.93;;;;;;;0.55;81.40;94450.06;4978517;28;20279;-85
2023/03/11 00:13:27;;;;;;;1.80;1.70;;;;;;;0.65;81.55;94434.84;4968151;28;20648;-87
2023/03/11 00:15:55;;;;;;;1.87;1.67;;;;;;;0.63;81.63;94437.53;4964118;28;20231;-85
2023/03/11 00:18:24;;;;;;;2.43;1.80;;;;;;;0.56;81.25;94447.38;4991674;28;20669;-84
2023/03/11 00:20:55;;;;;;;2.97;2.10;;;;;;;0.44;81.75;94440.66;4976987;28;20242;-85
2023/03/11 00:23:21;;;;;;;2.23;1.70;;;;;;;0.48;82.51;94447.13;4989279;28;20188;-85
2023/03/11 00:25:46;;;;;;;3.93;2.27;;;;;;;0.54;81.96;94451.81;4981329;28;20287;-86
2023/03/11 00:28:13;;;;;;;3.57;2.17;;;;;;;0.62;81.72;94446.13;4989424;28;20188;-84
2023/03/11 00:30:39;;;;;;;2.50;1.90;;;;;;;0.76;81.84;94455.31;4976574;28;20194;-85
2023/03/11 00:33:06;;;;;;;4.63;2.10;;;;;;;0.71;81.95;94448.00;4991192;28;20194;-85
2023/03/11 00:35:32;;;;;;;3.00;2.00;;;;;;;0.65;81.89;94448.44;4978820;28;20882;-86
2023/03/11 00:38:00;;;;;;;4.10;2.50;;;;;;;0.66;81.45;94456.91;4988763;28;20185;-86
2023/03/11 00:40:28;;;;;;;2.80;2.43;;;;;;;0.64;81.73;94467.25;4976812;28;20652;-84
2023/03/11 00:42:53;;;;;;;3.07;2.40;;;;;;;0.68;82.47;94466.09;4966492;28;20191;-84
2023/03/11 00:45:20;;;;;;;2.60;2.33;;;;;;;0.68;82.64;94478.88;4981627;28;20180;-85
2023/03/11 00:47:45;;;;;;;5.10;2.37;;;;;;;0.68;83.27;94504.41;4972768;28;20193;-83
2023/03/11 00:50:16;;;;;;;2.37;2.13;;;;;;;0.71;82.81;94483.75;4968349;28;20250;-84
2023/03/11 00:52:42;;;;;;;2.37;2.17;;;;;;;0.55;82.37;94483.28;4969176;28;20287;-86
2023/03/11 00:55:10;;;;;;;3.03;2.23;;;;;;;0.64;82.71;94497.91;4983025;28;20195;-84
2023/03/11 00:57:35;;;;;;;4.73;2.40;;;;;;;0.67;82.37;94502.78;4980505;28;20250;-84
2023/03/11 01:00:01;;;;;;;3.43;2.10;;;;;;;0.78;81.73;94502.81;4983271;28;20652;-86
2023/03/11 01:02:26;;;;;;;3.30;2.50;;;;;;;0.79;81.53;94506.97;4989560;28;20214;-84
2023/03/11 01:04:55;;;;;;;5.20;2.40;;;;;;;0.60;81.93;94501.59;4972057;28;20214;-82
2023/03/11 01:07:21;;;;;;;3.13;2.10;;;;;;;0.79;81.66;94494.19;4984432;28;20213;-85
2023/03/11 01:09:46;;;;;;;4.37;2.10;;;;;;;0.68;81.80;94504.41;4967022;28;20192;-85
2023/03/11 01:12:12;;;;;;;4.27;2.23;;;;;;;0.76;81.85;94484.22;4971035;28;20192;-83
2023/03/11 01:14:37;;;;;;;3.43;2.00;;;;;;;0.81;81.74;94494.94;4969473;28;20268;-84
2023/03/11 01:17:02;;;;;;;4.40;2.57;;;;;;;0.91;81.44;94489.13;4965833;28;20676;-84
2023/03/11 01:19:28;;;;;;;2.80;2.30;;;;;;;0.91;81.58;94499.34;4984041;28;20677;-87
2023/03/11 01:21:53;;;;;;;4.63;2.10;;;;;;;0.85;81.77;94491.19;4980787;28;20208;-85
2023/03/11 01:24:18;;;;;;;3.40;2.30;;;;;;;0.74;82.29;94498.03;4989244;28;20196;-85
2023/03/11 01:26:44;;;;;;;5.10;2.43;;;;;;;0.86;81.88;94492.00;4980507;28;20209;-87
2023/03/11 01:29:09;;;;;;;2.40;1.97;;;;;;;0.68;81.37;94504.41;4984946;28;20629;-84
2023/03/11 01:31:34;;;;;;;2.23;1.90;;;;;;;0.66;81.07;94525.91;4985481;28;20204;-85
2023/03/11 01:34:00;;;;;;;2.20;2.00;;;;;;;0.61;81.18;94500.69;4985347;28;20195;-86
2023/03/11 01:36:25;;;;;;;2.87;1.80;;;;;;;0.66;80.73;94501.16;4981953;28;20228;-85
2023/03/11 01:38:50;;;;;;;3.30;2.10;;;;;;;0.52;80.55;94503.91;4990844;28;20267;-85
2023/03/11 01:41:16;;;;;;;2.00;1.80;;;;;;;0.57;80.28;94506.94;4991604;28;20679;-86
2023/03/11 01:43:44;;;;;;;2.03;1.70;;;;;;;0.61;79.21;94517.75;4984005;28;20710;-85
2023/03/11 01:46:15;;;;;;;3.23;1.90;;;;;;;0.52;80.47;94511.56;4983734;28;20859;-85
2023/03/11 01:48:45;;;;;;;2.60;1.90;;;;;;;0.67;80.06;94494.31;4998220;28;20245;-85
2023/03/11 01:51:10;;;;;;;2.33;1.93;;;;;;;0.55;79.84;94506.25;4991804;28;20187;-84
2023/03/11 01:53:36;;;;;;;2.60;1.40;;;;;;;0.65;79.93;94514.06;4987599;28;20200;-85
2023/03/11 01:56:06;;;;;;;2.50;1.80;;;;;;;0.59;80.15;94506.84;4981231;28;20215;-85
2023/03/11 01:58:35;;;;;;;3.70;1.80;;;;;;;0.34;80.61;94511.19;4984905;28;20176;-85
2023/03/11 02:01:00;;;;;;;4.03;2.07;;;;;;;0.34;80.80;94511.19;5005976;28;20224;-85
2023/03/11 02:03:32;;;;;;;2.20;1.73;;;;;;;0.49;80.21;94511.81;5005506;28;20184;-85
2023/03/11 02:06:01;;;;;;;3.27;1.90;;;;;;;0.30;79.00;94522.53;4995496;28;20687;-84
2023/03/11 02:08:28;;;;;;;2.33;1.57;;;;;;;0.32;79.09;94527.53;4987531;28;20188;-83
2023/03/11 02:10:54;;;;;;;2.90;1.80;;;;;;;0.22;78.68;94525.66;4992598;28;20187;-83
2023/03/11 02:13:23;;;;;;;4.80;1.90;;;;;;;0.20;78.51;94514.75;4977394;28;20558;-84
2023/03/11 02:16:02;;;;;;;4.30;1.70;;;;;;;-0.06;78.59;94531.09;4965243;28;20583;-84
2023/03/11 02:18:30;;;;;;;2.83;1.70;;;;;;;0.02;78.09;94530.56;4989764;28;20522;-84
2023/03/11 02:21:05;;;;;;;3.30;1.53;;;;;;;-0.10;76.87;94516.91;4983371;28;20231;-84
2023/03/11 02:24:03;;;;;;;3.10;1.50;;;;;;;-0.18;76.27;94521.72;4982062;28;20193;-84
2023/03/11 02:27:27;;;;;;;1.60;1.50;;;;;;;-0.08;76.35;94515.91;4939373;29;20282;-84
2023/03/11 02:30:26;;;;;;;;;;;;;;;;;;;;;
2023/03/11 02:33:32;;;;;;;3.70;1.87;;;;;;;0.00;77.04;94512.81;4832946;29;20201;-85
2023/03/11 02:40:23;;;;;;;2.93;1.40;;;;;;;0.00;77.27;94492.38;4967429;28;20222;-87
2023/03/11 03:00:53;;;;;;;4.33;1.10;;;;;;;-0.22;76.53;94535.66;4922878;29;20205;-87
2023/03/11 03:03:43;;;;;;;2.30;1.37;;;;;;;-0.21;76.42;94544.94;4907891;29;20690;-86
2023/03/11 03:13:09;;;;;;;2.27;1.33;;;;;;;-0.31;76.51;94557.50;4951584;28;20223;-87
2023/03/11 03:15:56;;;;;;;4.50;1.57;;;;;;;-0.31;76.93;94550.66;4932167;28;20823;-84
2023/03/11 03:19:07;;;;;;;3.00;1.17;;;;;;;-0.52;76.79;94541.97;4922687;29;20205;-85
2023/03/11 03:21:41;;;;;;;2.87;1.30;;;;;;;-0.39;76.77;94531.72;4895537;29;20238;-86
2023/03/11 03:24:14;;;;;;;1.33;1.17;;;;;;;-0.50;77.64;94527.38;4920323;29;20256;-86
2023/03/11 03:26:56;;;;;;;4.03;1.63;;;;;;;-0.49;77.82;94520.53;4921759;29;20225;-84
2023/03/11 03:29:27;;;;;;;1.63;1.40;;;;;;;-0.56;77.30;94522.66;4918354;29;20204;-85
2023/03/11 03:31:55;;;;;;;3.60;1.50;;;;;;;-0.51;77.62;94530.84;4890863;29;20658;-85
2023/03/11 03:34:26;;;;;;;1.50;1.40;;;;;;;-0.59;78.43;94531.34;4874822;29;20234;-87
2023/03/11 03:36:56;;;;;;;5.10;1.60;;;;;;;-0.55;78.23;94544.69;4955351;28;20239;-85
2023/03/11 03:39:33;;;;;;;2.67;1.40;;;;;;;-0.50;78.05;94560.50;4982060;28;20242;-85
2023/03/11 03:42:24;;;;;;;3.67;1.83;;;;;;;-0.57;78.31;94572.06;4984009;28;20223;-85
2023/03/11 03:49:02;;;;;;;2.43;1.50;;;;;;;-0.59;78.58;94581.53;4940121;29;20308;-85
2023/03/11 06:30:36;;;;;;;5.53;1.93;;;;;;;-1.06;77.31;94662.00;4919010;29;20592;-84
2023/03/11 06:33:15;;;;;;;7.43;1.73;;;;;;;-0.97;76.77;94676.69;4914212;29;20194;-86
2023/03/11 06:35:49;;;;;;;7.30;2.20;;;;;;;-0.80;76.92;94667.09;4899973;29;20216;-85
2023/03/11 06:38:19;;;;;;;7.50;2.10;;;;;;;-0.61;76.19;94682.84;4910991;29;20339;-85
2023/03/11 06:40:50;;;;;;;4.07;2.00;;;;;;;-0.41;75.51;94681.50;4901858;29;20525;-85
2023/03/11 06:43:20;;;;;;;3.83;1.60;;;;;;;-0.11;75.12;94693.91;4893081;29;20201;-86
2023/03/11 06:45:48;;;;;;;7.40;1.70;;;;;;;-0.10;74.15;94685.34;4899936;29;20683;-85
2023/03/11 06:48:45;;;;;;;5.50;1.70;;;;;;;0.09;73.68;94705.31;4893750;29;20198;-84
2023/03/11 06:51:14;;;;;;;9.13;1.70;;;;;;;0.05;73.57;94694.50;4915397;29;20562;-84
2023/03/11 06:53:39;;;;;;;2.70;1.90;;;;;;;-0.10;73.93;94693.81;4903070;29;20189;-85
2023/03/11 06:56:09;;;;;;;4.67;1.87;;;;;;;0.02;73.32;94699.03;4916372;29;20540;-84
2023/03/11 06:58:35;;;;;;;7.47;1.90;;;;;;;-0.15;73.23;94692.50;4915996;29;20178;-85
2023/03/11 07:01:07;;;;;;;8.53;2.20;;;;;;;0.05;73.20;94704.72;4902162;29;20710;-85
2023/03/11 07:03:32;;;;;;;6.13;1.70;;;;;;;-0.08;73.05;94706.50;4915793;29;20191;-84
2023/03/11 07:05:58;;;;;;;4.17;1.50;;;;;;;0.02;72.87;94710.06;4905565;29;20203;-84
2023/03/11 07:08:24;;;;;;;2.23;1.57;;;;;;;0.06;72.27;94718.31;4910513;29;20222;-84
2023/03/11 07:11:11;;;;;;;5.53;1.77;;;;;;;0.09;72.12;94711.28;4910358;29;20190;-87
2023/03/11 07:13:39;;;;;;;5.30;1.80;;;;;;;0.15;71.97;94699.81;4916140;29;20190;-86
2023/03/11 07:16:12;;;;;;;5.90;1.57;;;;;;;0.20;71.52;94716.44;4904894;29;20586;-86
2023/03/11 07:18:37;;;;;;;10.50;1.83;;;;;;;0.28;70.97;94718.47;4885171;29;20290;-82
2023/03/11 07:21:04;;;;;;;11.53;2.00;;;;;;;0.21;69.94;94727.47;4899884;29;20290;-86
2023/03/11 07:23:30;;;;;;;2.00;1.37;;;;;;;0.51;69.59;94727.09;4909740;29;20203;-87
2023/03/11 07:26:03;;;;;;;5.10;1.80;;;;;;;0.59;68.78;94735.03;4892438;29;20303;-84
2023/03/11 07:32:26;;;;;;;5.20;1.73;;;;;;;0.99;68.35;94743.28;4911443;29;20212;-82
2023/03/11 07:35:26;;;;;;;4.57;1.40;;;;;;;0.99;66.98;94742.47;4908375;29;20345;-78
2023/03/11 07:38:02;;;;;;;7.43;1.87;;;;;;;1.12;66.71;94740.66;4921442;29;20195;-79
2023/03/11 07:40:34;;;;;;;4.57;1.43;;;;;;;1.30;66.52;94744.44;4909952;29;20210;-78
2023/03/11 07:43:02;;;;;;;8.17;1.83;;;;;;;1.33;67.20;94751.09;4914147;29;20207;-88
2023/03/11 07:45:30;;;;;;;4.43;1.90;;;;;;;1.19;66.71;94754.63;4901592;29;20230;-88
2023/03/11 07:47:56;;;;;;;4.13;1.70;;;;;;;0.95;65.11;94756.38;4900336;29;20723;-86
2023/03/11 07:50:24;;;;;;;5.30;2.27;;;;;;;0.99;65.33;94765.47;4885464;29;20202;-87
2023/03/11 07:52:58;;;;;;;5.23;1.40;;;;;;;0.98;65.70;94762.09;4899202;29;20183;-86
2023/03/11 07:55:25;;;;;;;4.47;1.57;;;;;;;0.99;66.48;94765.47;4900184;29;20179;-86
2023/03/11 07:57:52;;;;;;;6.13;1.90;;;;;;;0.88;65.79;94758.53;4883865;29;20194;-86
2023/03/11 08:00:22;;;;;;;5.63;1.40;;;;;;;0.93;66.18;94763.34;4881381;29;20679;-86
2023/03/11 08:02:51;;;;;;;5.73;1.70;;;;;;;0.80;66.58;94768.50;4901819;29;20206;-86
2023/03/11 08:05:22;;;;;;;5.23;1.37;;;;;;;1.03;65.42;94764.31;4902664;29;20253;-86
2023/03/11 08:07:52;;;;;;;5.40;1.53;;;;;;;1.20;64.79;94765.66;4920834;29;20670;-86
2023/03/11 08:10:26;;;;;;;4.27;1.70;;;;;;;1.04;64.40;94776.16;4920611;29;20186;-86
2023/03/11 08:12:56;;;;;;;2.13;1.23;;;;;;;1.27;64.46;94782.22;4935867;29;20288;-86
2023/03/11 08:15:26;;;;;;;7.30;1.60;;;;;;;0.93;64.06;94781.22;4932769;29;20216;-86
2023/03/11 08:18:02;;;;;;;4.03;1.47;;;;;;;0.94;65.04;94775.19;4937579;29;20190;-86
2023/03/11 08:20:30;;;;;;;4.67;2.30;;;;;;;0.91;63.81;94789.00;4937207;29;20197;-86
2023/03/11 08:22:56;;;;;;;7.57;2.40;;;;;;;1.12;64.42;94779.81;4935353;29;20738;-86
2023/03/11 08:25:30;;;;;;;6.20;1.50;;;;;;;1.18;63.82;94788.00;4905828;29;20210;-86
2023/03/11 08:27:59;;;;;;;3.50;1.60;;;;;;;1.16;64.72;94787.28;4922437;29;20197;-86
2023/03/11 08:30:30;;;;;;;7.40;2.90;;;;;;;1.27;64.77;94792.44;4906341;29;20265;-86
2023/03/11 08:33:36;;;;;;;4.00;1.10;;;;;;;1.38;62.54;94798.41;4901425;29;20190;-84
2023/03/11 08:39:51;;;;;;;6.87;1.33;;;;;;;1.05;61.60;94793.13;4914489;29;20202;-83
2023/03/11 08:42:20;;;;;;;3.20;1.07;;;;;;;1.32;60.78;94796.28;4901486;29;20226;-86
2023/03/11 08:44:46;;;;;;;5.03;1.40;;;;;;;1.41;62.15;94794.81;4905331;29;20199;-86
2023/03/11 08:47:12;;;;;;;6.07;1.63;;;;;;;1.33;61.91;94797.94;4904321;29;20211;-86
2023/03/11 08:49:37;;;;;;;9.03;1.43;;;;;;;1.33;62.21;94797.94;4912655;29;20353;-87
2023/03/11 08:52:03;;;;;;;5.93;1.43;;;;;;;1.56;61.41;94792.91;4907340;29;20182;-87
2023/03/11 08:54:29;;;;;;;6.90;1.27;;;;;;;1.61;60.11;94801.88;4906826;29;20198;-84
2023/03/11 08:56:55;;;;;;;4.10;1.10;;;;;;;1.44;59.98;94804.03;4918834;29;20234;-86
2023/03/11 08:59:23;;;;;;;3.80;1.07;;;;;;;0.83;60.63;94822.78;4906377;29;20202;-85
2023/03/11 09:01:51;;;;;;;2.83;1.20;;;;;;;1.01;60.83;94813.00;4905897;29;20218;-87
2023/03/11 09:04:45;;;;;;;3.87;1.50;;;;;;;1.29;61.30;94818.72;4898731;29;20195;-86
2023/03/11 09:07:12;;;;;;;4.17;1.40;;;;;;;1.34;61.32;94809.00;4911103;29;20215;-86
2023/03/11 09:09:37;;;;;;;3.17;1.23;;;;;;;1.24;61.78;94811.41;4898311;29;20202;-87
2023/03/11 09:12:03;;;;;;;3.67;1.20;;;;;;;1.44;60.50;94819.38;4892585;29;20202;-87
2023/03/11 09:14:28;;;;;;;2.67;1.03;;;;;;;1.73;59.85;94815.50;4906938;29;20239;-86
2023/03/11 09:16:53;;;;;;;4.07;1.70;;;;;;;1.70;59.85;94818.31;4885422;29;20290;-86
2023/03/11 09:19:19;;;;;;;4.07;1.43;;;;;;;1.73;59.87;94825.75;4886056;29;20191;-85
2023/03/11 09:21:44;;;;;;;6.03;1.67;;;;;;;1.89;61.51;94823.72;4891461;29;20305;-86
2023/03/11 09:24:10;;;;;;;2.97;1.23;;;;;;;2.35;60.44;94827.97;4904052;29;20666;-87
2023/03/11 09:27:02;;;;;;;2.67;1.13;;;;;;;2.34;59.33;94816.09;4899978;29;20300;-86
2023/03/11 09:32:54;;;;;;;2.70;1.50;;;;;;;2.46;58.46;94815.16;4912544;29;20290;-86
2023/03/11 09:35:19;;;;;;;6.90;1.50;;;;;;;2.36;59.26;94818.53;4878345;29;20202;-86
2023/03/11 09:37:45;;;;;;;5.10;1.60;;;;;;;2.17;59.20;94819.09;4898537;29;20205;-88
2023/03/11 09:40:18;;;;;;;2.80;1.23;;;;;;;2.08;58.96;94823.16;4888852;29;20194;-87
2023/03/11 09:43:04;;;;;;;2.03;1.30;;;;;;;1.81;58.93;94826.00;4903199;29;20241;-86
2023/03/11 09:45:58;;;;;;;3.70;1.70;;;;;;;1.81;59.75;94823.47;4905386;29;20721;-87
2023/03/11 09:48:55;;;;;;;4.03;2.00;;;;;;;1.87;59.80;94820.47;4893093;29;20215;-86
2023/03/11 09:51:32;;;;;;;8.17;1.47;;;;;;;1.95;59.40;94812.22;4886829;29;20206;-86
2023/03/11 09:54:07;;;;;;;2.17;1.03;;;;;;;1.96;56.83;94816.41;4882497;29;20218;-87
2023/03/11 09:56:34;;;;;;;2.67;1.30;;;;;;;2.05;58.63;94815.72;4896421;29;20270;-86
2023/03/11 09:59:05;;;;;;;3.30;1.80;;;;;;;2.38;58.84;94819.22;4930240;29;20570;-85
2023/03/11 10:01:44;;;;;;;5.40;1.10;;;;;;;2.76;56.94;94816.34;4906928;29;20628;-86
2023/03/11 10:04:16;;;;;;;4.07;1.10;;;;;;;2.91;54.86;94816.88;4898136;29;20198;-85
2023/03/11 10:06:44;;;;;;;5.13;1.20;;;;;;;3.10;55.28;94825.59;4900033;29;20274;-86
2023/03/11 10:09:12;;;;;;;3.00;1.00;;;;;;;3.28;55.55;94817.41;4908479;29;20187;-87
2023/03/11 10:12:45;;;;;;;5.97;1.20;;;;;;;3.01;48.94;94830.66;4918466;29;20570;-87
2023/03/11 10:15:22;;;;;;;2.90;0.77;;;;;;;3.33;51.66;94826.34;4924270;29;20209;-88
2023/03/11 10:18:43;;;;;;;5.73;0.87;;;;;;;3.28;49.70;94823.34;4916189;29;20225;-86
2023/03/11 10:21:35;;;;;;;3.17;0.80;;;;;;;3.32;50.51;94822.16;4911255;29;20219;-88
2023/03/11 10:24:27;;;;;;;2.53;1.00;;;;;;;3.00;48.94;94824.66;4895180;29;20547;-88
2023/03/11 10:27:00;;;;;;;3.43;0.90;;;;;;;3.52;50.65;94822.31;4904749;29;20819;-85
2023/03/11 10:29:47;;;;;;;3.33;1.03;;;;;;;3.98;48.83;94830.53;4900108;29;20200;-87
2023/03/11 10:32:17;;;;;;;4.47;1.33;;;;;;;3.97;49.00;94820.34;4925363;29;20195;-90
2023/03/11 10:34:47;;;;;;;3.17;1.07;;;;;;;4.14;47.47;94822.38;4917575;29;20337;-90
2023/03/11 10:37:20;;;;;;;5.17;1.17;;;;;;;3.72;48.25;94820.75;4907490;29;20227;-89
2023/03/11 10:39:47;;;;;;;4.53;1.40;;;;;;;3.26;51.14;94826.94;4860850;29;20207;-90
2023/03/11 10:42:17;;;;;;;3.30;1.30;;;;;;;3.41;52.42;94813.72;4862992;29;20306;-87
2023/03/11 10:44:44;;;;;;;1.77;1.00;;;;;;;3.21;49.36;94814.50;4870976;29;20227;-87
2023/03/11 10:47:24;;;;;;;6.07;2.77;;;;;;;3.75;52.11;94817.91;4827363;29;20347;-86
2023/03/11 10:50:24;;;;;;;5.27;2.17;;;;;;;3.56;49.30;94813.44;4860479;29;20207;-87
2023/03/11 10:53:27;;;;;;;2.47;1.33;;;;;;;3.62;48.10;94821.50;4934214;29;20271;-86
2023/03/11 10:55:57;;;;;;;3.77;1.40;;;;;;;3.45;51.14;94814.31;4920675;29;20206;-87
2023/03/11 10:58:34;;;;;;;3.37;1.03;;;;;;;3.30;50.76;94816.34;4897860;29;20282;-86
2023/03/11 11:05:05;;;;;;;2.20;1.20;;;;;;;3.44;49.23;94827.25;4956260;29;20323;-86
2023/03/11 11:14:47;;;;;;;4.53;2.30;;;;;;;3.69;50.60;94824.34;4894999;29;20753;-84
2023/03/11 11:42:48;;;;;;;2.20;0.77;;;;;;;4.00;44.47;94812.44;5086090;23;20313;-85
2023/03/11 12:13:45;;;;;;;1.77;1.10;;;;;;;4.33;46.68;94788.28;5278120;23;20322;-80
2023/03/11 12:44:38;;;;;;;1.37;0.90;;;;;;;4.90;44.63;94801.47;5000509;23;20830;-83
2023/03/11 12:47:06;;;;;;;2.47;1.10;;;;;;;4.53;45.32;94794.31;4917099;29;20228;-84
2023/03/11 12:49:42;;;;;;;2.77;1.03;;;;;;;5.13;45.57;94784.88;4916779;29;20262;-85
2023/03/11 13:09:54;;;;;;;2.27;1.13;;;;;;;4.91;46.01;94783.31;4923866;29;20279;-81
2023/03/11 13:12:58;;;;;;;3.13;1.93;;;;;;;4.82;45.61;94791.81;4946845;29;20265;-84
2023/03/11 13:15:34;;;;;;;3.20;1.50;;;;;;;4.93;45.36;94783.19;4859833;29;20222;-83
2023/03/11 13:18:06;;;;;;;6.10;1.27;;;;;;;4.43;44.79;94790.88;4852871;29;20210;-86
2023/03/11 13:20:40;;;;;;;3.07;1.07;;;;;;;4.48;45.14;94789.53;4858912;29;20245;-85
2023/03/11 13:23:17;;;;;;;3.27;1.70;;;;;;;4.74;45.80;94789.09;4865691;29;20212;-79
2023/03/11 13:25:46;;;;;;;1.97;1.77;;;;;;;4.96;45.50;94791.47;4850496;29;20257;-86
2023/03/11 13:28:29;;;;;;;1.63;1.17;;;;;;;4.95;45.20;94789.84;4870233;29;20226;-85
2023/03/11 13:31:16;;;;;;;6.47;1.10;;;;;;;5.15;44.94;94792.47;4862497;29;20202;-85
2023/03/11 13:40:47;;;;;;;3.93;1.17;;;;;;;4.87;43.70;94791.44;4869151;29;20214;-84
2023/03/11 13:43:24;;;;;;;8.40;1.17;;;;;;;4.88;43.70;94790.50;4870007;29;20316;-85
2023/03/11 13:46:25;;;;;;;3.17;1.23;;;;;;;4.94;44.57;94803.63;4877673;29;20315;-84
2023/03/11 13:49:06;;;;;;;4.87;1.23;;;;;;;5.08;45.17;94797.31;4908707;29;20225;-85
2023/03/11 13:51:51;;;;;;;3.03;1.20;;;;;;;5.32;43.53;94802.91;4917939;29;20197;-85
2023/03/11 13:54:24;;;;;;;1.13;0.90;;;;;;;5.24;45.50;94807.91;4911144;29;20209;-84
2023/03/11 13:56:56;;;;;;;4.43;1.10;;;;;;;5.26;43.11;94821.47;4911570;29;20214;-83
2023/03/11 13:59:29;;;;;;;2.77;1.07;;;;;;;5.28;43.86;94805.88;4923227;29;20806;-86
2023/03/11 14:02:23;;;;;;;;;;;;;;;;;;;;;
2023/03/11 14:04:52;;;;;;;6.00;1.53;;;;;;;4.90;43.71;94796.31;4936668;29;20262;-86
2023/03/11 14:07:24;;;;;;;3.10;1.80;;;;;;;4.89;44.10;94802.41;4923879;29;20361;-85
2023/03/11 14:10:01;;;;;;;4.07;1.20;;;;;;;4.80;44.14;94809.16;4921814;29;20197;-86
2023/03/11 14:12:30;;;;;;;1.87;1.00;;;;;;;5.18;45.54;94817.91;4910392;29;20205;-86
2023/03/11 14:15:00;;;;;;;2.50;1.00;;;;;;;5.33;44.24;94819.97;4930161;29;20225;-84
2023/03/11 14:17:25;;;;;;;5.63;3.77;;;;;;;5.29;44.06;94802.34;4929640;29;20206;-85
2023/03/11 14:20:05;;;;;;;4.27;1.27;;;;;;;4.94;43.28;94790.75;4921213;29;20202;-85
2023/03/11 14:22:31;;;;;;;7.17;1.20;;;;;;;5.21;42.83;94803.03;4930010;29;20221;-85
2023/03/11 14:25:01;;;;;;;3.27;1.33;;;;;;;5.33;44.18;94801.97;4908632;29;20579;-84
2023/03/11 14:27:26;;;;;;;2.73;1.27;;;;;;;5.33;43.20;94799.38;4935017;29;20300;-84
2023/03/11 14:29:51;;;;;;;3.10;0.90;;;;;;;5.13;44.34;94790.03;4903849;29;20318;-84
2023/03/11 14:32:31;;;;;;;6.00;5.40;;;;;;;5.44;43.97;94798.44;4909985;29;20237;-83
2023/03/11 14:34:57;;;;;;;2.90;1.60;;;;;;;5.46;44.39;94795.72;4901944;29;20187;-84
2023/03/11 14:37:41;;;;;;;2.13;0.70;;;;;;;5.30;44.78;94804.81;4912561;29;21054;-85
2023/03/11 14:40:26;;;;;;;4.33;1.40;;;;;;;5.64;44.84;94799.25;4920989;29;20197;-85
2023/03/11 14:42:53;;;;;;;3.03;1.20;;;;;;;5.64;44.89;94794.91;4919866;29;20237;-86
2023/03/11 14:45:21;;;;;;;2.07;1.30;;;;;;;5.57;45.04;94804.16;4905103;29;20234;-86
2023/03/11 14:48:13;;;;;;;4.50;1.03;;;;;;;5.49;42.86;94809.16;4911930;29;20197;-85
2023/03/11 14:50:39;;;;;;;3.63;1.30;;;;;;;5.05;43.13;94813.03;4901541;29;20198;-85
2023/03/11 14:53:08;;;;;;;1.93;1.30;;;;;;;5.03;44.97;94810.56;4908671;29;20190;-85
2023/03/11 14:55:49;;;;;;;3.00;1.13;;;;;;;5.56;45.43;94812.00;4914878;29;20232;-84
2023/03/11 14:58:29;;;;;;;3.97;0.80;;;;;;;5.24;42.99;94810.47;4918600;29;20189;-85
2023/03/11 15:01:13;;;;;;;2.97;1.10;;;;;;;5.39;43.54;94810.94;4920039;29;20353;-86
2023/03/11 15:03:55;;;;;;;4.40;1.23;;;;;;;5.54;44.44;94826.78;4913519;29;20182;-84
2023/03/11 15:06:28;;;;;;;5.07;1.00;;;;;;;5.52;43.74;94819.19;4935266;28;20245;-84
2023/03/11 15:09:05;;;;;;;2.40;0.80;;;;;;;5.59;44.18;94820.28;4924321;28;20222;-84
2023/03/11 15:11:45;;;;;;;4.37;1.10;;;;;;;5.45;44.75;94827.59;4932605;28;20202;-82
2023/03/11 15:14:30;;;;;;;5.37;1.30;;;;;;;5.57;44.48;94819.63;4933977;28;20198;-84
2023/03/11 15:17:09;;;;;;;4.67;1.43;;;;;;;5.53;44.24;94828.53;4903191;29;20666;-84
2023/03/11 15:19:35;;;;;;;4.63;1.63;;;;;;;5.12;43.43;94832.13;4920213;29;20277;-84
2023/03/11 15:22:35;;;;;;;4.93;1.40;;;;;;;5.25;45.34;94839.63;4917934;29;20202;-83
2023/03/11 15:25:01;;;;;;;4.27;1.40;;;;;;;5.21;45.13;94844.22;4888195;29;20568;-83
2023/03/11 15:27:29;;;;;;;3.43;1.30;;;;;;;5.10;45.25;94847.69;4900908;29;20210;-83
2023/03/11 15:29:54;;;;;;;3.57;1.37;;;;;;;5.09;45.58;94845.25;4916422;29;20208;-83
2023/03/11 15:32:29;;;;;;;7.97;1.30;;;;;;;4.71;44.59;94840.81;4910941;29;20650;-85
2023/03/11 15:35:06;;;;;;;2.83;1.27;;;;;;;4.63;44.97;94849.16;4920977;29;20194;-85
2023/03/11 15:37:32;;;;;;;4.20;1.10;;;;;;;4.69;45.83;94853.78;4921023;29;20672;-84
2023/03/11 15:40:16;;;;;;;3.00;1.07;;;;;;;4.44;44.05;94855.03;4903447;29;20208;-83
2023/03/11 15:42:42;;;;;;;1.93;1.10;;;;;;;4.14;45.65;94858.34;4934309;29;20729;-84
2023/03/11 15:45:14;;;;;;;4.27;1.20;;;;;;;4.05;45.31;94864.22;4910209;29;20348;-83
2023/03/11 15:47:40;;;;;;;3.23;1.33;;;;;;;4.18;46.08;94861.50;4903171;29;20255;-84
2023/03/11 15:50:13;;;;;;;2.70;1.20;;;;;;;4.34;46.42;94859.28;4900377;29;20194;-85
2023/03/11 15:52:39;;;;;;;2.47;1.20;;;;;;;4.09;45.58;94872.53;4899207;29;20199;-84
2023/03/11 15:55:05;;;;;;;5.13;1.17;;;;;;;4.10;46.04;94869.00;4916526;29;20205;-84
2023/03/11 15:57:30;;;;;;;3.50;1.20;;;;;;;3.93;45.57;94862.66;4905668;29;20229;-82
2023/03/11 15:59:57;;;;;;;3.07;1.30;;;;;;;4.07;46.50;94862.38;4906905;29;20257;-84
2023/03/11 16:02:28;;;;;;;1.80;1.13;;;;;;;3.97;45.81;94858.91;4936698;29;20240;-85
2023/03/11 16:04:53;;;;;;;4.40;1.30;;;;;;;4.09;47.39;94854.53;4934207;29;20216;-83
2023/03/11 16:07:19;;;;;;;4.37;2.80;;;;;;;4.11;46.60;94858.59;4903290;29;20874;-83
2023/03/11 16:09:44;;;;;;;3.33;1.63;;;;;;;4.02;47.00;94859.34;4902098;29;20206;-84
2023/03/11 16:12:21;;;;;;;6.57;1.80;;;;;;;3.97;45.75;94861.47;4919815;29;20213;-83
2023/03/11 16:14:48;;;;;;;3.93;2.20;;;;;;;4.05;46.50;94861.66;4918149;29;20541;-83
2023/03/11 16:17:14;;;;;;;2.77;2.07;;;;;;;4.04;46.61;94862.59;4919990;29;20206;-82
2023/03/11 16:19:43;;;;;;;2.50;1.37;;;;;;;3.95;46.68;94865.91;4915789;29;20235;-83
2023/03/11 16:22:18;;;;;;;4.20;1.30;;;;;;;3.97;46.07;94872.56;4916850;29;20217;-83
2023/03/11 16:24:44;;;;;;;3.80;1.23;;;;;;;3.93;45.51;94872.94;4898600;29;20564;-83
2023/03/11 16:27:12;;;;;;;4.50;1.83;;;;;;;3.88;46.05;94872.47;4916137;29;20717;-81
2023/03/11 16:29:38;;;;;;;3.20;1.70;;;;;;;3.65;47.73;94872.59;4917217;29;20642;-82
2023/03/11 16:32:03;;;;;;;2.93;1.53;;;;;;;3.61;48.43;94871.19;4909801;29;20197;-82
2023/03/11 16:34:28;;;;;;;4.17;1.30;;;;;;;3.61;47.29;94878.88;4897293;29;20197;-83
2023/03/11 16:36:54;;;;;;;9.07;4.73;;;;;;;3.64;46.82;94881.22;4913142;29;20218;-82
2023/03/11 16:39:19;;;;;;;4.30;1.73;;;;;;;3.52;47.47;94879.59;4900547;29;20205;-83
2023/03/11 16:41:44;;;;;;;4.03;1.50;;;;;;;3.43;47.03;94885.47;4905379;29;20666;-83
2023/03/11 16:44:10;;;;;;;2.97;1.40;;;;;;;3.39;47.46;94886.66;4927698;29;20235;-83
2023/03/11 16:46:36;;;;;;;3.77;1.77;;;;;;;3.39;47.70;94884.09;4910714;29;20444;-84
2023/03/11 16:49:01;;;;;;;9.13;4.10;;;;;;;3.25;47.13;94884.34;4907755;29;20198;-83
2023/03/11 16:51:26;;;;;;;9.50;5.00;;;;;;;3.24;47.78;94885.28;4926612;29;20186;-85
2023/03/11 16:53:52;;;;;;;8.30;5.77;;;;;;;3.09;45.93;94887.28;4913554;29;20289;-83
2023/03/11 16:56:18;;;;;;;5.90;4.17;;;;;;;3.10;46.23;94886.38;4906090;29;20725;-82
2023/03/11 16:58:45;;;;;;;4.40;2.13;;;;;;;3.04;46.39;94892.78;4914388;29;20182;-83
2023/03/11 17:01:11;;;;;;;5.63;1.90;;;;;;;3.11;46.81;94888.81;4906588;29;20197;-82
2023/03/11 17:03:38;;;;;;;3.50;1.93;;;;;;;2.99;48.42;94892.28;4919416;29;20267;-83
2023/03/11 17:06:03;;;;;;;5.93;1.80;;;;;;;3.02;48.15;94904.09;4913013;29;20274;-83
2023/03/11 17:08:29;;;;;;;4.47;1.50;;;;;;;2.94;49.16;94914.13;4905239;29;20670;-83
2023/03/11 17:10:54;;;;;;;2.63;1.40;;;;;;;2.82;49.14;94914.09;4917838;29;20694;-83
2023/03/11 17:13:19;;;;;;;3.37;1.27;;;;;;;2.70;48.92;94916.78;4914214;29;20659;-84
2023/03/11 17:15:55;;;;;;;6.83;1.50;;;;;;;2.67;48.92;94920.41;4911941;29;20221;-83
2023/03/11 17:18:20;;;;;;;2.07;1.20;;;;;;;2.51;49.98;94920.72;4915789;29;20188;-83
2023/03/11 17:20:46;;;;;;;4.33;1.70;;;;;;;2.39;49.01;94926.75;4907439;29;20198;-84
2023/03/11 17:23:11;;;;;;;3.73;2.13;;;;;;;2.28;48.63;94921.59;4922937;29;20219;-83
2023/03/11 17:25:40;;;;;;;4.67;1.63;;;;;;;2.24;48.91;94935.56;4915053;29;20217;-83
2023/03/11 17:28:05;;;;;;;2.97;1.20;;;;;;;2.18;48.07;94930.88;4899365;29;20191;-83
2023/03/11 17:30:31;;;;;;;3.43;1.73;;;;;;;2.06;48.19;94937.72;4911548;29;20186;-82